Time;durP1;ratioP1;P1;durP2;ratioP2;P2;SDS_P1;SDS_P2;PMS_P1;PMS_P2;Temp;Humidity;BMP_temperature;BMP_pressure;BME280_temperature;BME280_humidity;BME280_pressure;Samples;Min_cycle;Max_cycle;Signal;HPM_P1;HPM_P2
2021/11/22 00:00:41;;;;;;;8.57;4.03;;;10.60;99.90;;;10.79;67.83;101986.38;5055238;28;20041;-67
2021/11/22 00:03:12;;;;;;;8.15;4.13;;;10.50;99.90;;;10.78;67.79;101992.56;5055556;28;20064;-67
2021/11/22 00:05:40;;;;;;;8.75;4.03;;;10.60;99.90;;;10.54;68.46;101979.88;5055251;28;20106;-68
2021/11/22 00:08:10;;;;;;;10.85;4.38;;;10.50;99.90;;;10.46;68.42;101970.94;5055196;28;20463;-68
2021/11/22 00:10:39;;;;;;;11.20;4.33;;;10.40;99.90;;;10.66;68.46;101995.03;5055199;28;20419;-68
2021/11/22 00:13:07;;;;;;;13.68;4.50;;;10.50;99.90;;;10.64;68.54;101995.00;5055401;28;20333;-69
2021/11/22 00:15:36;;;;;;;11.77;4.20;;;10.40;99.90;;;10.63;68.43;102002.91;5055600;28;20045;-68
2021/11/22 00:18:04;;;;;;;9.52;4.72;;;10.50;99.90;;;10.57;68.70;101997.53;5055295;28;20074;-68
2021/11/22 00:20:34;;;;;;;12.38;4.13;;;10.40;99.90;;;10.60;68.48;102002.88;5054907;28;20045;-68
2021/11/22 00:23:02;;;;;;;9.35;3.90;;;10.40;99.90;;;10.62;68.48;101995.84;5054947;28;20033;-68
2021/11/22 00:25:32;;;;;;;6.63;3.97;;;10.50;99.90;;;10.63;68.77;102014.38;5055115;28;20103;-68
2021/11/22 00:28:00;;;;;;;7.87;4.00;;;10.40;99.90;;;10.68;68.20;102019.75;5055449;28;20049;-68
2021/11/22 00:30:52;;;;;;;10.20;3.85;;;10.50;99.90;;;10.64;68.45;102012.63;5045826;28;20331;-68
2021/11/22 00:33:24;;;;;;;15.80;4.50;;;10.40;99.90;;;10.71;68.01;102025.97;5069544;28;20068;-68
2021/11/22 00:36:17;;;;;;;17.27;4.88;;;10.50;99.90;;;10.66;68.48;102029.44;5053742;28;20041;-68
2021/11/22 00:38:46;;;;;;;7.95;4.18;;;10.50;99.90;;;10.63;68.61;102029.38;5054601;28;20041;-68
2021/11/22 00:41:16;;;;;;;9.73;4.55;;;10.40;99.90;;;10.55;68.53;102028.41;5054536;28;20402;-68
2021/11/22 00:43:44;;;;;;;8.90;3.95;;;10.40;99.90;;;10.46;68.64;102012.38;5054528;28;20037;-68
2021/11/22 00:46:12;;;;;;;9.45;4.32;;;10.40;99.90;;;10.51;68.79;102040.66;5055004;28;20037;-68
2021/11/22 00:48:41;;;;;;;16.10;4.85;;;10.30;99.90;;;10.43;68.80;102028.22;5054746;28;20049;-68
2021/11/22 00:51:10;;;;;;;9.65;4.45;;;10.30;99.90;;;10.40;68.94;102031.69;5054683;28;20041;-68
2021/11/22 00:53:38;;;;;;;10.07;4.50;;;10.30;99.90;;;10.55;68.85;102054.84;5054378;28;20045;-68
2021/11/22 00:56:07;;;;;;;9.70;4.63;;;10.30;99.90;;;10.51;69.22;102053.88;5054301;28;20127;-68
2021/11/22 00:58:37;;;;;;;8.75;4.28;;;10.30;99.90;;;10.51;69.08;102055.66;5054277;28;20486;-68
2021/11/22 01:01:05;;;;;;;10.60;4.50;;;10.30;99.90;;;10.46;69.12;102062.63;5054132;28;20449;-68
2021/11/22 01:03:34;;;;;;;8.07;4.22;;;10.30;99.90;;;10.45;69.07;102071.44;5054122;28;20569;-68
2021/11/22 01:06:02;;;;;;;14.10;4.15;;;10.30;99.90;;;10.46;69.51;102060.88;5054073;28;20052;-68
2021/11/22 01:08:31;;;;;;;14.73;4.72;;;10.20;99.90;;;10.26;69.32;102064.09;5054332;28;20048;-68
2021/11/22 01:11:00;;;;;;;7.78;4.35;;;10.20;99.90;;;10.39;69.38;102053.72;5053972;28;20041;-68
2021/11/22 01:13:28;;;;;;;6.97;4.10;;;10.30;99.90;;;10.43;69.51;102073.19;5054304;28;20457;-68
2021/11/22 01:15:58;;;;;;;8.93;4.32;;;10.20;99.90;;;10.33;69.67;102072.16;5053927;28;20564;-68
2021/11/22 01:18:27;;;;;;;6.68;3.58;;;10.20;99.90;;;10.36;69.43;102063.34;5053887;28;20041;-68
2021/11/22 01:20:55;;;;;;;9.38;4.10;;;10.20;99.90;;;10.39;69.27;102079.28;5053740;28;20037;-68
2021/11/22 01:23:24;;;;;;;8.85;4.13;;;10.20;99.90;;;10.32;69.77;102075.63;5053769;28;20495;-68
2021/11/22 01:25:52;;;;;;;9.13;4.38;;;10.20;99.90;;;10.38;69.41;102096.91;5052737;28;20483;-68
2021/11/22 01:28:21;;;;;;;9.52;4.55;;;10.10;99.90;;;10.26;69.55;102075.53;5053655;28;20441;-68
2021/11/22 01:30:49;;;;;;;13.48;4.72;;;10.10;99.90;;;9.94;69.59;102032.69;5069295;28;20045;-68
2021/11/22 01:33:20;;;;;;;8.93;4.38;;;10.10;99.90;;;10.35;69.35;102088.94;5069202;28;20466;-68
2021/11/22 01:35:49;;;;;;;12.65;4.32;;;10.20;99.90;;;10.30;69.78;102100.31;5054140;28;20487;-68
2021/11/22 01:38:18;;;;;;;10.52;4.32;;;10.10;99.90;;;10.30;69.74;102103.81;5053490;28;20036;-68
2021/11/22 01:40:47;;;;;;;12.00;4.53;;;10.20;99.90;;;10.36;69.10;102111.84;5053388;28;20041;-68
2021/11/22 01:43:16;;;;;;;6.60;4.18;;;10.20;99.90;;;10.27;69.51;102113.44;5054002;28;20048;-68
2021/11/22 01:45:45;;;;;;;12.23;4.60;;;10.10;99.90;;;10.26;69.85;102119.63;5053870;28;20040;-68
2021/11/22 01:48:16;;;;;;;9.73;4.63;;;10.00;99.90;;;10.24;69.87;102124.00;5052194;28;20457;-68
2021/11/22 01:50:48;;;;;;;11.63;4.55;;;10.00;99.90;;;10.19;69.65;102113.31;5053359;28;20314;-68
2021/11/22 01:53:17;;;;;;;9.93;4.78;;;10.10;99.90;;;10.07;69.74;102093.66;5053320;28;20041;-68
2021/11/22 01:55:46;;;;;;;9.90;4.20;;;10.00;99.90;;;10.18;69.69;102118.59;5053204;28;20486;-68
2021/11/22 01:58:16;;;;;;;9.27;4.13;;;10.00;99.90;;;10.19;69.63;102130.94;5052179;28;20072;-68
2021/11/22 02:00:49;;;;;;;9.00;4.68;;;10.00;99.90;;;10.18;69.47;102126.53;5053275;28;20448;-68
2021/11/22 02:03:18;;;;;;;11.65;4.13;;;10.00;99.90;;;10.15;69.44;102129.09;5053236;28;20041;-67
2021/11/22 02:05:51;;;;;;;12.50;4.82;;;9.90;99.90;;;10.08;69.78;102117.50;5052365;28;20044;-68
2021/11/22 02:08:21;;;;;;;8.90;4.05;;;9.90;99.90;;;10.21;69.61;102140.69;5053323;28;20402;-68
2021/11/22 02:10:50;;;;;;;8.38;4.47;;;10.00;99.90;;;9.99;69.02;102123.50;5053000;28;20051;-68
2021/11/22 02:13:19;;;;;;;7.70;4.10;;;10.00;99.90;;;10.18;68.84;102134.47;5053329;28;20048;-68
2021/11/22 02:15:48;;;;;;;9.93;4.38;;;10.00;99.90;;;9.73;68.96;102066.69;5053021;28;20405;-68
2021/11/22 02:18:18;;;;;;;12.90;4.57;;;9.90;99.90;;;10.10;69.01;102141.38;5053001;28;20045;-68
2021/11/22 02:20:49;;;;;;;8.82;4.53;;;10.00;99.90;;;10.00;68.31;102146.47;5053565;28;20475;-68
2021/11/22 02:23:17;;;;;;;9.18;4.55;;;9.90;99.90;;;10.08;68.41;102149.25;5053210;28;20036;-68
2021/11/22 02:25:46;;;;;;;12.88;5.15;;;9.90;99.90;;;10.09;68.00;102150.09;5052875;28;20060;-68
2021/11/22 02:28:15;;;;;;;9.00;4.28;;;9.90;99.90;;;9.95;67.53;102131.34;5053131;28;20069;-68
2021/11/22 02:30:47;;;;;;;10.30;4.25;;;9.80;99.90;;;10.05;67.53;102154.44;5053099;28;20064;-68
2021/11/22 02:33:18;;;;;;;11.15;4.38;;;9.90;99.90;;;9.94;67.50;102156.91;5053136;28;20132;-68
2021/11/22 02:35:51;;;;;;;8.13;4.50;;;9.80;99.90;;;9.85;67.21;102155.84;5052826;28;20437;-68
2021/11/22 02:38:28;;;;;;;11.02;3.88;;;9.70;99.90;;;9.88;67.57;102158.53;5053087;28;20052;-68
2021/11/22 02:40:58;;;;;;;13.77;4.25;;;9.70;99.90;;;9.95;67.09;102173.63;5052804;28;20059;-68
2021/11/22 02:43:30;;;;;;;8.25;4.55;;;9.80;99.90;;;9.99;67.04;102165.81;5053230;28;20073;-67
2021/11/22 02:45:59;;;;;;;9.13;4.47;;;9.70;99.90;;;9.95;66.62;102163.97;5068479;28;20445;-68
2021/11/22 02:48:28;;;;;;;10.85;3.80;;;9.80;99.90;;;9.93;66.21;102163.03;5052915;28;20394;-67
2021/11/22 02:50:58;;;;;;;12.45;4.50;;;9.80;99.90;;;9.89;66.35;102174.41;5052680;28;20045;-68
2021/11/22 02:53:28;;;;;;;7.70;3.50;;;9.80;99.90;;;9.91;66.30;102175.34;5051703;28;20052;-68
2021/11/22 02:56:01;;;;;;;10.25;3.92;;;9.70;99.90;;;9.92;65.90;102171.84;5052648;28;20098;-67
2021/11/22 02:58:29;;;;;;;8.27;3.90;;;9.80;99.90;;;9.92;66.38;102185.06;5056624;28;20049;-68
2021/11/22 03:00:58;;;;;;;10.32;3.97;;;9.70;99.90;;;9.90;66.22;102181.50;5056532;28;20040;-67
2021/11/22 03:03:29;;;;;;;7.30;3.80;;;9.70;99.90;;;9.81;66.06;102183.94;5056631;28;20049;-68
2021/11/22 03:06:10;;;;;;;;;;;9.70;99.90;;;9.82;65.93;102169.00;5057161;28;20071;-68
2021/11/22 03:08:41;;;;;;;9.02;4.32;;;9.70;99.90;;;9.99;65.66;102192.25;5056401;28;19925;-67
2021/11/22 03:11:11;;;;;;;8.40;3.90;;;9.80;99.90;;;9.91;65.88;102200.91;5056641;28;20044;-67
2021/11/22 03:13:41;;;;;;;12.40;4.22;;;9.70;99.90;;;9.90;65.57;102207.03;5056292;28;20071;-67
2021/11/22 03:16:10;;;;;;;10.38;3.85;;;9.70;99.90;;;9.93;65.61;102204.44;5056547;28;20044;-68
2021/11/22 03:18:39;;;;;;;10.85;4.07;;;9.70;99.90;;;9.88;65.58;102208.75;5056202;28;20056;-68
2021/11/22 03:21:09;;;;;;;10.07;4.18;;;9.70;99.90;;;9.82;65.34;102208.63;5056108;28;20052;-68
2021/11/22 03:23:39;;;;;;;9.32;4.22;;;9.60;99.90;;;9.84;65.84;102217.47;5055989;28;20040;-67
2021/11/22 03:26:08;;;;;;;9.13;3.75;;;9.60;99.90;;;9.78;65.74;102215.59;5056285;28;20071;-67
2021/11/22 03:28:37;;;;;;;7.70;3.72;;;9.60;99.90;;;9.70;65.62;102224.22;5056314;28;20068;-67
2021/11/22 03:31:06;;;;;;;12.70;4.05;;;9.60;99.90;;;9.73;65.97;102227.84;5056498;28;20036;-68
2021/11/22 03:33:34;;;;;;;10.75;3.90;;;9.60;99.90;;;9.73;65.20;102233.13;5056093;28;20406;-67
2021/11/22 03:36:03;;;;;;;9.70;3.70;;;9.60;99.90;;;9.63;65.72;102219.69;5054851;28;20045;-67
2021/11/22 03:38:32;;;;;;;9.10;4.22;;;9.60;99.90;;;9.70;65.54;102233.03;5055899;28;20457;-67
2021/11/22 03:41:03;;;;;;;11.97;4.50;;;9.50;99.90;;;9.80;65.27;102247.34;5055823;28;20041;-67
2021/11/22 03:43:35;;;;;;;13.88;4.05;;;9.50;99.90;;;9.76;65.46;102229.63;5055767;28;20090;-67
2021/11/22 03:46:04;;;;;;;13.85;4.20;;;9.60;99.90;;;9.69;65.95;102233.91;5055961;28;20052;-67
2021/11/22 03:48:33;;;;;;;6.80;4.10;;;9.50;99.90;;;9.71;66.08;102244.53;5055812;28;20057;-67
2021/11/22 03:51:02;;;;;;;13.02;3.70;;;9.50;99.90;;;9.66;65.68;102248.78;5055582;28;20029;-68
2021/11/22 03:53:32;;;;;;;9.20;3.80;;;9.50;99.90;;;9.70;65.59;102251.53;5055526;28;20479;-67
2021/11/22 03:56:01;;;;;;;12.52;4.43;;;9.50;99.90;;;9.74;65.72;102256.03;5055769;28;20045;-67
2021/11/22 03:58:29;;;;;;;9.80;4.18;;;9.50;99.90;;;9.61;65.78;102261.94;5055684;28;20131;-67
2021/11/22 04:00:58;;;;;;;7.82;4.00;;;9.40;99.90;;;9.66;65.50;102269.94;5055629;28;20044;-67
2021/11/22 04:03:27;;;;;;;9.15;3.60;;;9.50;99.90;;;9.75;65.52;102275.44;5055228;28;20041;-67
2021/11/22 04:05:56;;;;;;;13.40;3.78;;;9.50;99.90;;;9.72;65.82;102265.69;5055283;28;20041;-67
2021/11/22 04:08:25;;;;;;;7.40;4.45;;;9.50;99.90;;;9.71;65.34;102281.50;5053632;28;20139;-67
2021/11/22 04:10:54;;;;;;;11.63;4.55;;;9.50;99.90;;;9.66;65.90;102281.41;5054180;28;20057;-67
2021/11/22 04:13:24;;;;;;;13.63;4.33;;;9.40;99.90;;;9.61;65.49;102274.22;5055186;28;20048;-67
2021/11/22 04:15:52;;;;;;;10.07;4.03;;;9.40;99.90;;;9.56;65.91;102278.53;5055089;28;20345;-68
2021/11/22 04:18:21;;;;;;;9.90;4.40;;;9.30;99.90;;;9.50;66.13;102283.69;5055651;28;20048;-68
2021/11/22 04:20:49;;;;;;;9.20;4.53;;;9.30;99.90;;;9.54;66.08;102299.59;5055024;28;20447;-68
2021/11/22 04:23:19;;;;;;;7.90;4.07;;;9.30;99.90;;;9.30;65.95;102290.22;5070602;28;20072;-68
2021/11/22 04:25:47;;;;;;;9.15;4.28;;;9.20;99.90;;;9.42;66.69;102307.28;5055460;28;20067;-67
2021/11/22 04:28:17;;;;;;;7.20;3.83;;;9.20;99.90;;;9.45;66.55;102309.97;5054870;28;20501;-67
2021/11/22 04:30:46;;;;;;;10.60;4.35;;;9.20;99.90;;;9.44;65.96;102315.22;5054791;28;20033;-67
2021/11/22 04:33:15;;;;;;;6.80;3.60;;;9.30;99.90;;;9.48;66.50;102317.09;5055005;28;20148;-67
2021/11/22 04:35:44;;;;;;;12.38;4.18;;;9.20;99.90;;;9.42;66.41;102311.66;5054950;28;20080;-67
2021/11/22 04:38:12;;;;;;;9.25;4.07;;;9.20;99.90;;;9.39;66.40;102309.81;5054949;28;20128;-68
2021/11/22 04:40:41;;;;;;;7.80;4.40;;;9.20;99.90;;;9.46;65.95;102309.13;5053651;28;20434;-68
2021/11/22 04:43:10;;;;;;;10.68;3.85;;;9.20;99.90;;;9.33;66.13;102296.47;5054523;28;20099;-68
2021/11/22 04:45:40;;;;;;;9.02;4.10;;;9.20;99.90;;;9.52;66.02;102318.94;5054503;28;20045;-68
2021/11/22 04:48:08;;;;;;;9.60;4.60;;;9.30;99.90;;;9.43;66.07;102311.69;5054626;28;20053;-68
2021/11/22 04:50:37;;;;;;;11.18;3.90;;;9.30;99.90;;;9.41;65.91;102321.31;5054400;28;20052;-68
2021/11/22 04:53:06;;;;;;;9.60;4.25;;;9.20;99.90;;;9.18;66.56;102287.28;5054671;28;20102;-68
2021/11/22 04:55:35;;;;;;;9.07;3.78;;;9.10;99.90;;;9.34;66.33;102324.69;5054607;28;20139;-67
2021/11/22 04:58:05;;;;;;;14.73;4.20;;;9.20;99.90;;;9.39;66.28;102328.31;5054260;28;20047;-68
2021/11/22 05:00:35;;;;;;;13.30;4.30;;;9.20;99.90;;;9.45;65.72;102325.81;5054570;28;20053;-68
2021/11/22 05:03:06;;;;;;;9.30;4.35;;;9.30;99.90;;;9.45;65.90;102330.19;5054735;28;20065;-67
2021/11/22 05:05:35;;;;;;;11.13;3.90;;;9.20;99.90;;;7.56;65.40;101995.88;5054182;28;20107;-67
2021/11/22 05:08:06;;;;;;;9.02;3.90;;;9.30;99.90;;;9.43;65.58;102338.09;5054354;28;20136;-69
2021/11/22 05:10:38;;;;;;;10.05;4.25;;;9.20;99.90;;;9.45;66.04;102332.84;5053999;28;20476;-71
2021/11/22 05:13:07;;;;;;;13.20;4.18;;;9.30;99.90;;;9.42;66.00;102348.63;5054043;28;20083;-69
2021/11/22 05:15:38;;;;;;;13.00;4.05;;;9.30;99.90;;;9.45;66.05;102351.31;5054489;28;20131;-70
2021/11/22 05:18:10;;;;;;;9.68;3.72;;;9.20;99.90;;;9.34;65.87;102343.16;5053970;28;20482;-69
2021/11/22 05:20:41;;;;;;;8.82;4.03;;;9.20;99.90;;;9.40;65.80;102351.25;5069179;28;20053;-69
2021/11/22 05:23:12;;;;;;;10.43;3.88;;;9.20;99.90;;;9.32;66.00;102336.94;5054056;28;20037;-68
2021/11/22 05:25:41;;;;;;;11.07;4.00;;;9.20;99.90;;;9.40;66.20;102359.16;5053861;28;20486;-68
2021/11/22 05:28:10;;;;;;;9.55;4.38;;;9.20;99.90;;;9.38;66.31;102362.59;5069309;28;20137;-69
2021/11/22 05:30:39;;;;;;;11.50;4.30;;;9.10;99.90;;;9.36;66.10;102353.75;5053707;28;20098;-69
2021/11/22 05:33:09;;;;;;;14.18;4.88;;;9.10;99.90;;;9.24;66.17;102343.78;5052649;28;20060;-68
2021/11/22 05:35:37;;;;;;;11.32;4.40;;;9.10;99.90;;;9.37;66.16;102372.28;5053613;28;20041;-68
2021/11/22 05:38:06;;;;;;;12.60;4.18;;;9.20;99.90;;;9.31;66.28;102364.19;5053508;28;20163;-68
2021/11/22 05:40:39;;;;;;;12.02;4.30;;;9.10;99.90;;;9.25;66.26;102365.81;5053535;28;20045;-68
2021/11/22 05:43:08;;;;;;;10.27;3.85;;;9.10;99.90;;;9.28;66.37;102377.34;5053618;28;20119;-68
2021/11/22 05:45:37;;;;;;;8.23;4.32;;;9.10;99.90;;;9.34;66.32;102374.84;5053682;28;20052;-68
2021/11/22 05:48:09;;;;;;;10.10;4.43;;;9.10;99.90;;;9.15;65.82;102350.59;5053507;28;20441;-67
2021/11/22 05:50:38;;;;;;;10.07;4.13;;;9.10;99.90;;;9.30;66.03;102383.56;5053667;28;20095;-67
2021/11/22 05:53:09;;;;;;;13.77;4.35;;;9.10;99.90;;;9.29;65.88;102381.75;5069176;28;20164;-68
2021/11/22 05:55:39;;;;;;;;;;;9.10;99.90;;;9.28;66.09;102387.91;5053774;28;20056;-68
2021/11/22 05:58:11;;;;;;;8.63;4.40;;;9.10;99.90;;;9.08;65.75;102352.16;5053769;28;19970;-68
2021/11/22 06:00:41;;;;;;;10.75;4.45;;;9.10;99.90;;;9.30;66.15;102390.56;5053536;28;20068;-68
2021/11/22 06:03:12;;;;;;;10.45;3.90;;;9.10;99.90;;;9.11;66.17;102365.47;5053388;28;20049;-68
2021/11/22 06:05:41;;;;;;;7.25;4.22;;;9.10;99.90;;;9.25;66.76;102398.41;5053714;28;20080;-68
2021/11/22 06:08:09;;;;;;;10.52;3.92;;;9.10;99.90;;;9.21;66.41;102401.81;5053147;28;20047;-68
2021/11/22 06:10:38;;;;;;;9.98;4.38;;;9.10;99.90;;;9.26;66.64;102401.91;5053026;28;20490;-68
2021/11/22 06:13:10;;;;;;;8.10;4.18;;;9.10;99.90;;;9.06;66.31;102428.69;5053236;28;20095;-68
2021/11/22 06:15:39;;;;;;;14.82;4.72;;;9.10;99.90;;;9.26;66.35;102412.47;5053289;28;20056;-68
2021/11/22 06:18:08;;;;;;;11.38;4.18;;;9.10;99.90;;;9.06;66.38;102396.09;5052896;28;20475;-68
2021/11/22 06:20:38;;;;;;;10.27;4.70;;;9.00;99.90;;;9.20;66.34;102422.88;5053498;28;20045;-68
2021/11/22 06:23:07;;;;;;;9.30;4.75;;;9.00;99.90;;;9.11;66.62;102402.41;5053089;28;20083;-68
2021/11/22 06:25:36;;;;;;;8.38;4.40;;;9.00;99.90;;;9.20;65.95;102438.69;5068477;28;20450;-68
2021/11/22 06:28:05;;;;;;;12.43;4.50;;;9.00;99.90;;;9.02;66.41;102404.78;5053091;28;20514;-68
2021/11/22 06:30:34;;;;;;;7.80;4.00;;;9.00;99.90;;;9.24;66.28;102438.84;5051733;28;20538;-68
2021/11/22 06:33:03;;;;;;;9.93;4.85;;;9.00;99.90;;;9.24;66.06;102433.56;5071610;28;20045;-68
2021/11/22 06:35:35;;;;;;;11.30;4.20;;;9.10;99.90;;;9.31;66.22;102453.09;5056867;28;20045;-68
2021/11/22 06:38:06;;;;;;;8.95;4.00;;;9.10;99.90;;;9.25;66.53;102451.19;5057011;28;20449;-68
2021/11/22 06:40:35;;;;;;;;;;;9.00;99.90;;;9.25;66.54;102450.31;5057305;28;20229;-68
2021/11/22 06:43:03;;;;;;;11.63;3.88;;;9.10;99.90;;;9.26;66.40;102449.44;5056843;28;19921;-68
2021/11/22 06:45:32;;;;;;;7.20;3.72;;;9.10;99.90;;;9.20;66.82;102458.09;5072387;28;20094;-68
2021/11/22 06:48:01;;;;;;;10.85;4.45;;;9.00;99.90;;;9.20;66.50;102455.44;5056639;28;20175;-68
2021/11/22 06:50:30;;;;;;;10.18;5.15;;;9.00;99.90;;;9.23;66.62;102468.75;5056684;28;20088;-68
2021/11/22 06:52:59;;;;;;;12.43;4.15;;;9.00;99.90;;;9.25;66.88;102468.78;5056842;28;20123;-68
2021/11/22 06:55:29;;;;;;;10.48;4.20;;;9.00;99.90;;;9.24;66.31;102475.81;5057034;28;20064;-68
2021/11/22 06:57:58;;;;;;;8.95;4.22;;;9.00;99.90;;;9.22;66.36;102488.06;5056808;28;20127;-68
2021/11/22 07:00:27;;;;;;;12.90;4.80;;;9.00;99.90;;;9.10;66.77;102477.16;5056400;28;20494;-68
2021/11/22 07:02:56;;;;;;;11.60;4.35;;;9.00;99.90;;;9.24;66.30;102496.03;5056294;28;20052;-68
2021/11/22 07:05:26;;;;;;;12.95;4.53;;;9.00;99.90;;;9.19;66.79;102495.91;5056288;28;20430;-68
2021/11/22 07:07:54;;;;;;;12.82;4.10;;;9.00;99.90;;;9.18;66.67;102512.59;5056595;28;20095;-68
2021/11/22 07:10:23;;;;;;;8.50;4.63;;;9.00;99.90;;;9.22;66.80;102525.03;5056106;28;20094;-69
2021/11/22 07:12:54;;;;;;;8.77;3.92;;;9.00;99.90;;;9.20;67.21;102523.19;5056195;28;20421;-68
2021/11/22 07:15:22;;;;;;;;;;;9.00;99.90;;;9.16;67.20;102519.56;5057050;28;20057;-68
2021/11/22 07:17:51;;;;;;;14.15;4.00;;;9.00;99.90;;;9.06;67.13;102499.03;5056384;28;19970;-68
2021/11/22 07:20:21;;;;;;;9.43;4.70;;;9.00;99.90;;;9.29;66.78;102534.03;5055943;28;20045;-68
2021/11/22 07:22:50;;;;;;;11.20;5.10;;;9.10;99.90;;;9.34;66.54;102538.56;5056248;28;20048;-68
2021/11/22 07:25:18;;;;;;;6.75;3.70;;;9.10;99.90;;;9.39;66.77;102544.84;5055787;28;20338;-68
2021/11/22 07:27:47;;;;;;;8.38;4.10;;;9.10;99.90;;;9.45;66.71;102547.66;5055867;28;20040;-68
2021/11/22 07:30:20;;;;;;;11.40;4.57;;;9.20;99.90;;;9.50;66.48;102548.72;5055862;28;20041;-68
2021/11/22 07:32:52;;;;;;;10.73;4.22;;;9.30;99.90;;;9.67;66.11;102562.34;5055888;28;20037;-68
2021/11/22 07:35:23;;;;;;;11.98;5.10;;;9.50;99.90;;;9.81;66.16;102560.97;5071600;28;20057;-68
2021/11/22 07:37:52;;;;;;;14.07;4.55;;;9.60;99.90;;;10.03;65.92;102558.00;5054839;28;20045;-68
2021/11/22 07:40:22;;;;;;;10.85;4.53;;;9.80;99.90;;;10.24;65.45;102573.56;5055769;28;20044;-69
2021/11/22 07:42:51;;;;;;;12.63;4.78;;;9.90;99.90;;;10.43;64.74;102546.66;5055750;28;20090;-69
2021/11/22 07:45:22;;;;;;;10.60;4.63;;;10.20;99.90;;;10.85;63.70;102582.03;5054592;28;20045;-68
2021/11/22 07:47:52;;;;;;;9.38;4.38;;;10.50;99.90;;;11.12;62.96;102589.66;5055570;28;20111;-68
2021/11/22 07:50:23;;;;;;;8.48;3.92;;;10.80;99.90;;;11.30;62.29;102587.41;5055375;28;20127;-69
2021/11/22 07:52:54;;;;;;;6.88;4.47;;;11.00;99.90;;;11.65;61.40;102592.53;5054095;28;20502;-69
2021/11/22 07:55:23;;;;;;;11.23;4.50;;;11.30;99.90;;;11.93;60.44;102591.28;5055627;28;20052;-69
2021/11/22 07:57:54;;;;;;;9.13;3.90;;;11.60;99.90;;;12.23;59.74;102596.25;5055613;28;20443;-69
2021/11/22 08:00:26;;;;;;;7.47;4.00;;;11.90;99.90;;;12.54;59.01;102599.38;5071084;28;20061;-68
2021/11/22 08:02:55;;;;;;;9.57;4.57;;;12.20;99.90;;;12.74;58.31;102605.00;5055309;28;20049;-68
2021/11/22 08:05:27;;;;;;;8.88;3.97;;;12.50;99.90;;;12.98;57.73;102605.34;5055005;28;20048;-69
2021/11/22 08:07:56;;;;;;;11.38;4.28;;;12.70;99.90;;;13.24;57.38;102614.56;5055213;28;20041;-70
2021/11/22 08:10:27;;;;;;;9.40;4.22;;;13.00;99.90;;;13.27;56.55;102598.69;5053837;28;20068;-70
2021/11/22 08:13:00;;;;;;;10.30;3.80;;;13.10;99.90;;;13.33;56.06;102574.84;5054065;28;20671;-71
2021/11/22 08:15:32;;;;;;;10.55;4.35;;;13.40;99.90;;;13.88;55.68;102634.81;5055160;28;20110;-71
2021/11/22 08:18:03;;;;;;;15.45;4.82;;;13.60;99.90;;;14.10;54.99;102635.94;5055148;28;20441;-71
2021/11/22 08:20:33;;;;;;;9.00;4.30;;;13.90;99.90;;;14.22;54.29;102628.97;5054086;28;20106;-70
2021/11/22 08:23:01;;;;;;;8.85;4.18;;;14.00;99.90;;;14.35;53.95;102627.31;5055284;28;20403;-71
2021/11/22 08:25:33;;;;;;;10.85;4.78;;;14.10;99.90;;;14.40;53.42;102615.81;5054746;28;20073;-71
2021/11/22 08:28:02;;;;;;;9.38;4.10;;;14.20;99.90;;;14.68;53.33;102640.91;5055217;28;20107;-70
2021/11/22 08:30:33;;;;;;;11.80;4.38;;;14.40;99.90;;;14.80;52.88;102638.31;5054807;28;20124;-69
2021/11/22 08:33:02;;;;;;;10.98;4.70;;;14.60;99.90;;;15.07;52.90;102648.25;5053880;28;20055;-69
2021/11/22 08:35:32;;;;;;;7.05;4.05;;;14.80;99.90;;;15.26;52.01;102648.38;5053776;28;20049;-69
2021/11/22 08:38:01;;;;;;;12.43;4.80;;;15.00;99.90;;;15.46;51.36;102652.94;5055027;28;20048;-69
2021/11/22 08:40:30;;;;;;;12.63;4.43;;;15.20;99.90;;;15.76;51.16;102663.69;5054519;28;20040;-70
2021/11/22 08:42:59;;;;;;;13.25;4.75;;;15.50;99.90;;;15.82;50.33;102659.28;5054443;28;20053;-69
2021/11/22 08:45:28;;;;;;;9.05;4.65;;;15.60;99.90;;;15.94;50.75;102637.97;5054983;28;20128;-69
2021/11/22 08:47:58;;;;;;;12.90;4.60;;;15.80;99.90;;;16.04;49.20;102626.41;5054658;28;20061;-69
2021/11/22 08:50:26;;;;;;;9.70;4.00;;;16.10;99.90;;;16.44;49.74;102662.03;5054734;28;20053;-70
2021/11/22 08:52:55;;;;;;;14.00;4.70;;;16.30;99.90;;;16.63;49.27;102666.53;5054738;28;20040;-70
2021/11/22 08:55:24;;;;;;;9.95;4.38;;;16.40;99.90;;;16.83;48.60;102670.09;5053857;28;20053;-70
2021/11/22 08:57:53;;;;;;;6.78;3.88;;;16.60;99.90;;;16.71;47.99;102654.03;5054578;28;20067;-70
2021/11/22 09:00:26;;;;;;;8.63;4.00;;;16.70;99.90;;;16.91;47.52;102683.44;5054194;28;20045;-70
2021/11/22 09:02:56;;;;;;;7.07;3.78;;;16.70;99.90;;;17.01;47.89;102653.13;5054207;28;20449;-71
2021/11/22 09:05:26;;;;;;;9.35;4.20;;;16.90;99.90;;;17.20;46.95;102676.25;5054643;28;20041;-70
2021/11/22 09:07:55;;;;;;;8.10;3.75;;;17.10;99.90;;;17.42;46.86;102688.63;5054092;28;20044;-70
2021/11/22 09:10:24;;;;;;;8.88;3.85;;;17.30;99.90;;;17.65;46.42;102697.50;5054043;28;20541;-70
2021/11/22 09:12:53;;;;;;;10.25;3.60;;;17.50;99.90;;;17.74;46.14;102700.16;5054103;28;20049;-70
2021/11/22 09:15:22;;;;;;;7.97;4.15;;;17.60;99.90;;;17.59;46.11;102665.44;5054191;28;20068;-70
2021/11/22 09:17:57;;;;;;;9.52;3.95;;;17.60;99.90;;;17.61;45.50;102708.25;5054494;28;20041;-70
2021/11/22 09:20:28;;;;;;;13.35;4.10;;;17.50;99.90;;;17.78;46.24;102709.97;5053875;28;20060;-70
2021/11/22 09:22:58;;;;;;;10.27;4.75;;;17.60;99.90;;;17.78;45.91;102707.28;5054396;28;20048;-71
2021/11/22 09:25:27;;;;;;;7.15;3.45;;;17.70;99.90;;;17.99;45.58;102720.56;5053617;28;20055;-70
2021/11/22 09:27:56;;;;;;;14.35;3.67;;;17.80;99.90;;;18.17;44.75;102711.53;5053571;28;20065;-70
2021/11/22 09:30:24;;;;;;;6.88;3.67;;;18.00;99.90;;;18.31;45.26;102724.84;5053619;28;20049;-71
2021/11/22 09:32:53;;;;;;;10.10;3.67;;;18.10;99.90;;;18.32;43.77;102718.56;5069483;28;20059;-70
2021/11/22 09:35:27;;;;;;;8.20;3.97;;;18.30;99.90;;;18.35;44.67;102723.94;5053590;28;20045;-70
2021/11/22 09:37:55;;;;;;;8.02;3.78;;;18.20;99.90;;;18.45;44.56;102720.28;5053589;28;20055;-70
2021/11/22 09:40:24;;;;;;;7.38;3.92;;;18.30;99.90;;;18.43;44.46;102728.34;5053485;28;20061;-70
2021/11/22 09:42:55;;;;;;;9.05;4.07;;;18.30;99.90;;;18.44;43.68;102750.69;5053369;28;20033;-70
2021/11/22 09:45:27;;;;;;;8.20;3.60;;;18.30;99.90;;;18.47;43.93;102739.94;5053344;28;20049;-70
2021/11/22 09:47:59;;;;;;;7.03;3.78;;;18.30;99.90;;;18.51;43.63;102742.59;5053127;28;20057;-70
2021/11/22 09:50:30;;;;;;;10.35;3.33;;;18.40;99.90;;;18.16;43.14;102725.81;5053732;28;20487;-70
2021/11/22 09:53:01;;;;;;;10.00;3.70;;;18.20;99.90;;;18.36;43.82;102748.03;5053535;28;20453;-70
2021/11/22 09:55:31;;;;;;;9.57;4.35;;;18.20;99.90;;;18.44;43.95;102751.59;5053315;28;20045;-70
2021/11/22 09:58:01;;;;;;;7.07;3.23;;;18.20;99.90;;;18.31;43.30;102755.19;5068925;28;20099;-70
2021/11/22 10:00:34;;;;;;;;;;;18.20;99.90;;;18.30;44.22;102726.63;5053607;28;20295;-70
2021/11/22 10:03:06;;;;;;;7.57;3.78;;;18.30;99.90;;;17.85;43.69;102756.31;5053506;28;20022;-70
2021/11/22 10:05:37;;;;;;;6.55;3.60;;;17.90;99.90;;;18.15;44.34;102757.97;5053029;28;20479;-69
2021/11/22 10:08:07;;;;;;;;;;;17.90;99.90;;;18.28;43.63;102743.59;5054142;28;20479;-70
2021/11/22 10:10:40;;;;;;;7.10;3.83;;;18.10;99.90;;;18.04;43.98;102766.06;5053154;28;19924;-70
2021/11/22 10:13:28;;;;;;;6.65;3.65;;;17.90;99.90;;;17.59;43.56;102755.53;5053361;28;20045;-70
2021/11/22 10:16:00;;;;;;;11.75;4.18;;;17.50;99.90;;;16.94;45.39;102747.56;5053387;28;20098;-70
2021/11/22 10:18:31;;;;;;;8.85;4.38;;;16.90;99.90;;;17.30;44.65;102755.59;5051854;28;20052;-70
2021/11/22 10:21:08;;;;;;;7.20;3.53;;;17.10;99.90;;;16.45;43.81;102598.81;5052816;28;20045;-70
2021/11/22 10:23:39;;;;;;;8.57;4.07;;;17.10;99.90;;;17.10;44.37;102755.59;5053162;28;20106;-70
2021/11/22 10:26:10;;;;;;;7.60;3.60;;;17.00;99.90;;;16.83;45.15;102722.63;5053131;28;20044;-69
2021/11/22 10:28:42;;;;;;;7.70;3.65;;;16.80;99.90;;;17.11;45.03;102754.69;5052993;28;20049;-69